createdAt,value
2018-11-07T00:02:05.133Z,6.70
2018-11-07T00:04:33.302Z,6.60
2018-11-07T00:07:01.389Z,6.50
2018-11-07T00:09:29.537Z,6.40
2018-11-07T00:11:57.754Z,6.40
2018-11-07T00:14:25.926Z,6.40
2018-11-07T00:16:54.102Z,6.20
2018-11-07T00:19:22.281Z,7.40
2018-11-07T00:21:55.755Z,6.30
2018-11-07T00:24:23.912Z,6.30
2018-11-07T00:26:52.114Z,6.30
2018-11-07T00:29:20.432Z,6.40
2018-11-07T00:31:54.131Z,4.80
2018-11-07T00:34:22.428Z,6.30
2018-11-07T00:36:50.580Z,6.30
2018-11-07T00:39:18.865Z,6.40
2018-11-07T00:41:47.023Z,6.40
2018-11-07T00:44:15.160Z,6.50
2018-11-07T00:46:43.957Z,6.50
2018-11-07T00:49:12.217Z,6.50
2018-11-07T00:51:40.352Z,6.50
2018-11-07T00:54:08.458Z,6.50
2018-11-07T00:56:36.639Z,6.40
2018-11-07T00:59:04.855Z,6.60
2018-11-07T01:01:33.215Z,6.40
2018-11-07T01:04:01.516Z,6.40
2018-11-07T01:06:29.737Z,6.40
2018-11-07T01:08:57.877Z,6.40
2018-11-07T01:11:26.051Z,6.40
2018-11-07T01:13:54.173Z,6.40
2018-11-07T01:16:23.206Z,6.40
2018-11-07T01:18:51.421Z,6.30
2018-11-07T01:21:19.577Z,6.20
2018-11-07T01:23:47.763Z,6.20
2018-11-07T01:26:16.004Z,6.10
2018-11-07T01:28:44.257Z,6.10
2018-11-07T01:31:14.719Z,6.00
2018-11-07T01:33:43.123Z,5.90
2018-11-07T01:36:11.250Z,5.80
2018-11-07T01:38:39.498Z,5.70
2018-11-07T01:41:07.767Z,5.60
2018-11-07T01:43:35.924Z,5.60
2018-11-07T01:46:04.130Z,5.70
2018-11-07T01:48:32.322Z,5.80
2018-11-07T01:51:00.482Z,5.80
2018-11-07T01:53:28.538Z,5.90
2018-11-07T01:55:56.798Z,6.00
2018-11-07T01:58:24.997Z,6.00
2018-11-07T02:00:53.159Z,6.10
2018-11-07T02:03:21.327Z,6.00
2018-11-07T02:05:49.504Z,6.00
2018-11-07T02:08:17.631Z,6.10
2018-11-07T02:10:45.803Z,5.70
2018-11-07T02:13:13.937Z,6.00
2018-11-07T02:15:42.191Z,6.10
2018-11-07T02:18:10.743Z,6.20
2018-11-07T02:20:38.892Z,6.40
2018-11-07T02:23:12.179Z,6.50
2018-11-07T02:25:40.313Z,6.50
2018-11-07T02:28:08.502Z,6.50
2018-11-07T02:30:36.612Z,6.60
2018-11-07T02:33:04.906Z,6.60
2018-11-07T02:35:33.133Z,6.70
2018-11-07T02:38:01.954Z,6.60
2018-11-07T02:40:30.199Z,6.70
2018-11-07T02:42:58.620Z,6.80
2018-11-07T02:45:26.933Z,6.80
2018-11-07T02:47:55.112Z,6.70
2018-11-07T02:50:23.280Z,6.80
2018-11-07T02:53:21.147Z,6.80
2018-11-07T02:55:49.223Z,6.80
2018-11-07T02:58:17.355Z,6.90
2018-11-07T03:00:45.417Z,6.90
2018-11-07T03:03:18.806Z,6.80
2018-11-07T03:05:47.001Z,6.90
2018-11-07T03:08:15.259Z,6.80
2018-11-07T03:10:43.476Z,6.90
2018-11-07T03:13:11.724Z,6.90
2018-11-07T03:15:39.863Z,6.90
2018-11-07T03:18:08.013Z,6.90
2018-11-07T03:20:36.161Z,7.00
2018-11-07T03:23:04.463Z,7.00
2018-11-07T03:25:32.908Z,7.10
2018-11-07T03:28:01.074Z,7.20
2018-11-07T03:30:29.211Z,7.10
2018-11-07T03:32:58.129Z,7.10
2018-11-07T03:35:27.247Z,7.00
2018-11-07T03:37:56.327Z,7.00
2018-11-07T03:40:25.170Z,7.00
2018-11-07T03:42:53.523Z,7.00
2018-11-07T03:45:26.265Z,7.00
2018-11-07T03:47:55.537Z,7.10
2018-11-07T03:50:23.786Z,7.10
2018-11-07T03:52:51.994Z,7.00
2018-11-07T03:55:20.220Z,6.30
2018-11-07T03:57:48.371Z,6.90
2018-11-07T04:00:16.535Z,6.90
2018-11-07T04:02:44.862Z,6.90
2018-11-07T04:05:13.094Z,6.90
2018-11-07T04:07:42.088Z,7.00
2018-11-07T04:10:13.437Z,7.00
2018-11-07T04:12:41.701Z,6.70
2018-11-07T04:15:09.926Z,6.80
2018-11-07T04:17:38.212Z,7.10
2018-11-07T04:20:07.550Z,7.00
2018-11-07T04:22:40.804Z,6.90
2018-11-07T04:25:09.358Z,6.90
2018-11-07T04:27:37.637Z,7.00
2018-11-07T04:30:08.724Z,7.10
2018-11-07T04:32:37.034Z,7.10
2018-11-07T04:35:11.878Z,7.10
2018-11-07T04:37:40.660Z,7.10
2018-11-07T04:40:10.850Z,7.00
2018-11-07T04:42:39.181Z,7.10
2018-11-07T04:45:07.570Z,7.10
2018-11-07T04:47:37.225Z,7.00
2018-11-07T04:50:08.767Z,7.00
2018-11-07T04:52:36.933Z,7.00
2018-11-07T04:55:05.959Z,7.00
2018-11-07T04:57:36.644Z,7.00
2018-11-07T05:00:08.223Z,7.10
2018-11-07T05:02:36.320Z,7.10
2018-11-07T05:05:04.916Z,7.10
2018-11-07T05:07:33.601Z,7.10
2018-11-07T05:10:01.776Z,7.10
2018-11-07T05:12:29.936Z,7.10
2018-11-07T05:14:58.060Z,7.10
2018-11-07T05:17:26.191Z,7.10
2018-11-07T05:19:54.362Z,7.10
2018-11-07T05:22:22.581Z,7.10
2018-11-07T05:24:50.708Z,7.10
2018-11-07T05:27:18.867Z,7.10
2018-11-07T05:29:47.019Z,7.10
2018-11-07T05:32:15.133Z,7.00
2018-11-07T05:34:43.298Z,7.00
2018-11-07T05:37:11.456Z,7.00
2018-11-07T05:39:39.649Z,7.00
2018-11-07T05:42:07.831Z,7.00
2018-11-07T05:44:35.984Z,7.10
2018-11-07T05:47:04.329Z,7.00
2018-11-07T05:49:32.468Z,7.00
2018-11-07T05:52:00.720Z,6.90
2018-11-07T05:54:28.906Z,6.90
2018-11-07T05:56:57.143Z,6.90
2018-11-07T05:59:25.340Z,6.90
2018-11-07T06:02:12.519Z,6.90
2018-11-07T06:04:40.708Z,6.80
2018-11-07T06:07:08.809Z,6.80
2018-11-07T06:09:38.115Z,6.70
2018-11-07T06:12:06.285Z,6.70
2018-11-07T06:14:34.461Z,6.70
2018-11-07T06:17:02.690Z,6.60
2018-11-07T06:19:30.871Z,6.70
2018-11-07T06:21:59.031Z,6.70
2018-11-07T06:24:27.266Z,6.60
2018-11-07T06:26:55.444Z,6.50
2018-11-07T06:29:24.697Z,6.60
2018-11-07T06:31:54.234Z,6.60
2018-11-07T06:34:22.408Z,6.70
2018-11-07T06:36:50.569Z,6.70
2018-11-07T06:39:18.756Z,6.70
2018-11-07T06:41:46.916Z,6.80
2018-11-07T06:44:15.819Z,6.70
2018-11-07T06:46:44.048Z,6.60
2018-11-07T06:49:12.690Z,6.60
2018-11-07T06:51:40.873Z,6.60
2018-11-07T06:54:09.028Z,6.60
2018-11-07T06:56:37.520Z,6.70
2018-11-07T06:59:06.116Z,6.70
2018-11-07T07:01:34.260Z,6.40
2018-11-07T07:04:02.464Z,6.70
2018-11-07T07:06:30.600Z,6.70
2018-11-07T07:08:58.729Z,6.50
2018-11-07T07:11:26.950Z,6.60
2018-11-07T07:13:55.907Z,6.60
2018-11-07T07:16:24.129Z,6.60
2018-11-07T07:18:52.267Z,6.60
2018-11-07T07:21:20.489Z,6.60
2018-11-07T07:23:48.592Z,6.60
2018-11-07T07:26:16.780Z,6.70
2018-11-07T07:28:44.907Z,6.80
2018-11-07T07:31:13.237Z,6.70
2018-11-07T07:33:41.927Z,6.70
2018-11-07T07:36:10.010Z,6.70
2018-11-07T07:38:38.100Z,6.70
2018-11-07T07:41:06.268Z,6.70
2018-11-07T07:43:39.421Z,6.60
2018-11-07T07:46:07.532Z,6.70
2018-11-07T07:48:35.726Z,6.50
2018-11-07T07:51:04.434Z,6.70
2018-11-07T07:53:32.581Z,6.70
2018-11-07T07:56:00.789Z,6.40
2018-11-07T07:58:28.909Z,6.90
2018-11-07T08:00:57.108Z,7.00
2018-11-07T08:03:25.285Z,7.00
2018-11-07T08:05:53.469Z,7.00
2018-11-07T08:08:21.633Z,7.00
2018-11-07T08:10:49.736Z,6.90
2018-11-07T08:13:18.278Z,7.00
2018-11-07T08:15:46.451Z,7.10
2018-11-07T08:18:14.581Z,6.70
2018-11-07T08:20:42.694Z,7.20
2018-11-07T08:23:10.993Z,7.20
2018-11-07T08:25:39.217Z,7.30
2018-11-07T08:28:07.975Z,7.00
2018-11-07T08:30:37.577Z,6.90
2018-11-07T08:33:10.803Z,7.40
2018-11-07T08:35:39.000Z,7.50
2018-11-07T08:38:07.243Z,7.40
2018-11-07T08:40:35.404Z,7.60
2018-11-07T08:43:03.928Z,7.70
2018-11-07T08:45:32.048Z,7.80
2018-11-07T08:48:00.189Z,7.80
2018-11-07T08:50:28.351Z,7.80
2018-11-07T08:53:10.374Z,7.80
2018-11-07T08:55:38.526Z,7.80
2018-11-07T08:58:06.674Z,7.90
2018-11-07T09:00:34.794Z,7.80
2018-11-07T09:03:02.947Z,7.90
2018-11-07T09:05:31.096Z,7.90
2018-11-07T09:07:59.292Z,8.00
2018-11-07T09:10:27.445Z,8.10
2018-11-07T09:12:55.685Z,8.20
2018-11-07T09:15:23.903Z,8.20
2018-11-07T09:17:52.102Z,8.30
2018-11-07T09:20:21.613Z,8.40
2018-11-07T09:22:50.111Z,8.30
2018-11-07T09:25:19.414Z,8.60
2018-11-07T09:27:48.582Z,8.60
2018-11-07T09:30:20.003Z,8.60
2018-11-07T09:32:48.232Z,8.60
2018-11-07T09:35:16.474Z,8.60
2018-11-07T09:37:44.694Z,8.70
2018-11-07T09:40:17.488Z,8.80
2018-11-07T09:42:46.337Z,8.90
2018-11-07T09:45:16.159Z,9.00
2018-11-07T09:47:45.065Z,9.00
2018-11-07T09:50:14.117Z,9.00
2018-11-07T09:52:42.531Z,9.00
2018-11-07T09:55:12.730Z,8.70
2018-11-07T09:57:41.146Z,9.10
2018-11-07T10:00:12.685Z,9.20
2018-11-07T10:02:41.068Z,9.20
2018-11-07T10:05:11.775Z,9.20
2018-11-07T10:07:40.479Z,9.30
2018-11-07T10:10:11.946Z,9.40
2018-11-07T10:12:40.535Z,9.40
2018-11-07T10:15:11.209Z,9.50
2018-11-07T10:17:39.414Z,9.50
2018-11-07T10:20:11.617Z,9.60
2018-11-07T10:22:46.709Z,9.70
2018-11-07T10:25:15.053Z,9.70
2018-11-07T10:27:43.505Z,9.70
2018-11-07T10:30:13.900Z,9.80
2018-11-07T10:33:00.800Z,9.70
2018-11-07T10:35:28.913Z,9.70
2018-11-07T10:37:57.107Z,9.70
2018-11-07T10:40:25.193Z,9.80
2018-11-07T10:42:53.349Z,10.10
2018-11-07T10:45:21.516Z,9.50
2018-11-07T10:47:50.141Z,9.70
2018-11-07T10:50:19.356Z,9.70
2018-11-07T10:52:48.354Z,9.80
2018-11-07T10:55:16.937Z,9.90
2018-11-07T10:57:45.462Z,9.90
2018-11-07T11:00:20.528Z,9.90
2018-11-07T11:03:08.723Z,9.40
2018-11-07T11:05:37.895Z,9.80
2018-11-07T11:08:06.293Z,9.90
2018-11-07T11:10:34.387Z,9.80
2018-11-07T11:13:02.586Z,10.00
2018-11-07T11:15:30.709Z,10.10
2018-11-07T11:17:58.901Z,10.10
2018-11-07T11:20:26.993Z,10.10
2018-11-07T11:22:55.169Z,10.00
2018-11-07T11:25:23.332Z,10.10
2018-11-07T11:27:51.538Z,10.10
2018-11-07T11:30:19.770Z,10.00
2018-11-07T11:32:48.003Z,9.80
2018-11-07T11:35:16.267Z,10.00
2018-11-07T11:37:44.376Z,9.90
2018-11-07T11:40:13.673Z,10.00
2018-11-07T11:42:42.755Z,9.90
2018-11-07T11:45:13.213Z,10.20
2018-11-07T11:47:43.030Z,10.40
2018-11-07T11:50:13.738Z,10.40
2018-11-07T11:52:43.059Z,10.50
2018-11-07T11:55:11.337Z,10.50
2018-11-07T11:57:40.102Z,10.70
2018-11-07T12:00:12.627Z,10.90
2018-11-07T12:02:40.651Z,10.80
2018-11-07T12:05:10.405Z,10.90
2018-11-07T12:07:38.982Z,11.10
2018-11-07T12:10:14.845Z,11.00
2018-11-07T12:12:50.261Z,11.20
2018-11-07T12:15:19.420Z,11.20
2018-11-07T12:17:47.662Z,11.20
2018-11-07T12:20:15.909Z,11.20
2018-11-07T12:22:49.520Z,11.00
2018-11-07T12:25:18.395Z,11.40
2018-11-07T12:27:46.626Z,11.60
2018-11-07T12:30:16.907Z,11.70
2018-11-07T12:32:46.509Z,11.70
2018-11-07T12:35:15.315Z,11.90
2018-11-07T12:37:43.471Z,12.00
2018-11-07T12:40:12.283Z,12.10
2018-11-07T12:42:45.757Z,12.10
2018-11-07T12:45:14.879Z,12.40
2018-11-07T12:47:43.024Z,12.00
2018-11-07T12:50:14.123Z,12.80
2018-11-07T12:52:42.843Z,13.20
2018-11-07T12:55:11.755Z,13.70
2018-11-07T12:57:39.932Z,14.10
2018-11-07T13:00:12.814Z,14.50
2018-11-07T13:02:41.101Z,14.80
2018-11-07T13:05:10.806Z,15.30
2018-11-07T13:07:39.305Z,15.60
2018-11-07T13:10:11.121Z,15.80
2018-11-07T13:12:39.825Z,16.00
2018-11-07T13:15:09.365Z,15.90
2018-11-07T13:17:37.552Z,15.90
2018-11-07T13:20:14.326Z,16.00
2018-11-07T13:22:43.707Z,16.10
2018-11-07T13:25:12.433Z,16.00
2018-11-07T13:27:40.686Z,16.00
2018-11-07T13:30:12.133Z,15.80
2018-11-07T13:32:45.474Z,16.30
2018-11-07T13:35:14.507Z,16.30
2018-11-07T13:37:43.823Z,16.10
2018-11-07T13:40:17.889Z,16.10
2018-11-07T13:42:46.942Z,16.10
2018-11-07T13:45:16.373Z,16.00
2018-11-07T13:47:45.600Z,16.10
2018-11-07T13:50:14.362Z,16.20
2018-11-07T13:52:42.546Z,16.10
2018-11-07T13:55:11.748Z,15.40
2018-11-07T13:57:40.390Z,15.60
2018-11-07T14:00:12.536Z,15.40
2018-11-07T14:02:40.693Z,15.80
2018-11-07T14:05:09.964Z,15.80
2018-11-07T14:07:38.287Z,16.00
2018-11-07T14:10:09.457Z,16.10
2018-11-07T14:12:37.745Z,15.70
2018-11-07T14:15:09.025Z,14.80
2018-11-07T14:17:37.355Z,15.00
2018-11-07T14:20:06.400Z,14.70
2018-11-07T14:22:34.710Z,14.70
2018-11-07T14:25:03.100Z,14.70
2018-11-07T14:27:31.408Z,14.50
2018-11-07T14:29:59.572Z,14.40
2018-11-07T14:32:29.169Z,14.30
2018-11-07T14:34:57.346Z,14.20
2018-11-07T14:37:25.604Z,14.00
2018-11-07T14:39:53.788Z,13.70
2018-11-07T14:42:22.096Z,13.70
2018-11-07T14:44:50.283Z,13.70
2018-11-07T14:47:18.677Z,13.60
2018-11-07T14:49:47.109Z,13.60
2018-11-07T14:52:15.318Z,13.40
2018-11-07T14:54:43.627Z,13.30
2018-11-07T14:57:11.882Z,13.20
2018-11-07T14:59:40.119Z,12.90
2018-11-07T15:02:08.534Z,12.70
2018-11-07T15:04:36.750Z,12.20
2018-11-07T15:07:05.299Z,12.20
2018-11-07T15:09:33.383Z,12.00
2018-11-07T15:12:06.979Z,11.80
2018-11-07T15:14:35.156Z,11.60
2018-11-07T15:17:03.423Z,11.40
2018-11-07T15:19:31.623Z,11.30
2018-11-07T15:21:59.855Z,11.20
2018-11-07T15:24:28.038Z,11.00
2018-11-07T15:26:56.163Z,11.00
2018-11-07T15:29:24.328Z,10.90
2018-11-07T15:31:52.855Z,10.90
2018-11-07T15:34:21.036Z,10.70
2018-11-07T15:36:49.582Z,10.50
2018-11-07T15:39:17.866Z,10.40
2018-11-07T15:41:55.181Z,10.30
2018-11-07T15:44:23.458Z,9.90
2018-11-07T15:46:51.655Z,10.00
2018-11-07T15:49:20.104Z,9.90
2018-11-07T15:51:53.715Z,9.80
2018-11-07T15:54:23.229Z,9.80
2018-11-07T15:56:51.409Z,9.70
2018-11-07T15:59:19.619Z,9.50
2018-11-07T16:01:47.890Z,9.40
2018-11-07T16:04:16.212Z,9.40
2018-11-07T16:06:44.469Z,9.30
2018-11-07T16:09:13.597Z,9.30
2018-11-07T16:11:43.372Z,9.20
2018-11-07T16:14:11.595Z,9.20
2018-11-07T16:16:39.799Z,9.00
2018-11-07T16:19:08.707Z,9.00
2018-11-07T16:21:36.960Z,9.00
2018-11-07T16:24:06.134Z,9.00
2018-11-07T16:26:34.207Z,9.00
2018-11-07T16:29:02.576Z,9.00
2018-11-07T16:31:31.484Z,9.00
2018-11-07T16:34:02.606Z,9.00
2018-11-07T16:36:32.931Z,9.10
2018-11-07T16:39:01.960Z,9.20
2018-11-07T16:41:30.380Z,9.20
2018-11-07T16:43:58.492Z,9.20
2018-11-07T16:46:26.787Z,9.30
2018-11-07T16:48:55.514Z,9.30
2018-11-07T16:51:23.696Z,9.30
2018-11-07T16:53:51.968Z,9.40
2018-11-07T16:56:20.306Z,9.40
2018-11-07T16:58:48.574Z,9.50
2018-11-07T17:01:16.837Z,9.50
2018-11-07T17:03:45.046Z,9.50
2018-11-07T17:06:13.315Z,9.60
2018-11-07T17:08:41.559Z,9.60
2018-11-07T17:11:10.104Z,9.60
2018-11-07T17:13:38.273Z,9.40
2018-11-07T17:16:06.535Z,9.50
2018-11-07T17:18:34.820Z,9.40
2018-11-07T17:21:03.005Z,9.40
2018-11-07T17:23:31.185Z,9.30
2018-11-07T17:25:59.393Z,9.30
2018-11-07T17:28:27.537Z,9.30
2018-11-07T17:30:56.338Z,9.30
2018-11-07T17:33:24.453Z,9.30
2018-11-07T17:35:52.666Z,8.90
2018-11-07T17:38:20.811Z,9.40
2018-11-07T17:40:48.983Z,9.40
2018-11-07T17:43:18.036Z,9.40
2018-11-07T17:45:46.279Z,9.40
2018-11-07T17:48:15.443Z,9.30
2018-11-07T17:50:43.599Z,9.30
2018-11-07T17:53:11.780Z,9.20
2018-11-07T17:55:39.948Z,9.20
2018-11-07T17:58:08.062Z,9.10
2018-11-07T18:00:36.279Z,9.20
2018-11-07T18:03:04.557Z,9.20
2018-11-07T18:05:32.739Z,9.10
2018-11-07T18:08:01.196Z,9.10
2018-11-07T18:10:29.389Z,9.10
2018-11-07T18:12:57.502Z,9.20
2018-11-07T18:15:25.705Z,9.30
2018-11-07T18:17:54.236Z,9.30
2018-11-07T18:20:22.386Z,9.40
2018-11-07T18:22:50.713Z,9.40
2018-11-07T18:25:18.885Z,9.40
2018-11-07T18:27:47.058Z,9.30
2018-11-07T18:30:16.356Z,8.90
2018-11-07T18:32:45.427Z,9.30
2018-11-07T18:35:15.710Z,9.40
2018-11-07T18:37:44.734Z,9.30
2018-11-07T18:40:14.142Z,9.40
2018-11-07T18:42:43.241Z,9.40
2018-11-07T18:45:12.312Z,9.00
2018-11-07T18:47:42.070Z,9.30
2018-11-07T18:50:12.075Z,9.20
2018-11-07T18:52:40.687Z,9.20
2018-11-07T18:55:10.910Z,9.20
2018-11-07T18:57:39.269Z,9.30
2018-11-07T19:00:10.802Z,9.00
2018-11-07T19:02:39.541Z,9.40
2018-11-07T19:05:08.158Z,9.40
2018-11-07T19:07:36.859Z,9.40
2018-11-07T19:10:08.632Z,9.30
2018-11-07T19:12:37.717Z,9.20
2018-11-07T19:15:08.569Z,9.20
2018-11-07T19:17:36.793Z,9.30
2018-11-07T19:20:05.673Z,9.30
2018-11-07T19:22:33.909Z,9.30
2018-11-07T19:25:02.148Z,9.30
2018-11-07T19:27:30.418Z,9.20
2018-11-07T19:29:58.761Z,9.20
2018-11-07T19:32:32.300Z,9.10
2018-11-07T19:35:01.537Z,9.10
2018-11-07T19:37:31.412Z,9.00
2018-11-07T19:39:59.549Z,9.00
2018-11-07T19:42:27.814Z,8.90
2018-11-07T19:44:56.102Z,8.90
2018-11-07T19:47:24.276Z,8.90
2018-11-07T19:49:52.582Z,9.00
2018-11-07T19:52:22.036Z,9.00
2018-11-07T19:54:50.192Z,9.00
2018-11-07T19:57:18.410Z,9.10
2018-11-07T19:59:46.633Z,9.10
2018-11-07T20:02:15.238Z,9.00
2018-11-07T20:04:43.434Z,9.00
2018-11-07T20:07:11.690Z,9.00
2018-11-07T20:09:39.899Z,9.10
2018-11-07T20:12:08.165Z,9.10
2018-11-07T20:14:36.371Z,9.00
2018-11-07T20:17:04.896Z,9.00
2018-11-07T20:19:33.099Z,9.00
2018-11-07T20:22:06.398Z,9.10
2018-11-07T20:24:35.138Z,9.10
2018-11-07T20:27:03.580Z,9.10
2018-11-07T20:29:31.840Z,9.10
2018-11-07T20:31:59.971Z,9.10
2018-11-07T20:34:28.177Z,8.80
2018-11-07T20:36:56.439Z,9.00
2018-11-07T20:39:26.162Z,9.00
2018-11-07T20:41:55.134Z,9.00
2018-11-07T20:44:23.201Z,9.00
2018-11-07T20:46:51.399Z,8.80
2018-11-07T20:49:25.093Z,8.80
2018-11-07T20:51:53.495Z,10.20
2018-11-07T20:54:28.858Z,8.60
2018-11-07T20:56:58.721Z,8.60
2018-11-07T20:59:32.310Z,6.70
2018-11-07T21:02:06.875Z,8.60
2018-11-07T21:04:36.751Z,8.60
2018-11-07T21:07:11.467Z,8.60
2018-11-07T21:09:45.956Z,8.60
2018-11-07T21:12:25.892Z,6.90
2018-11-07T21:14:58.492Z,8.80
2018-11-07T21:17:30.986Z,8.50
2018-11-07T21:20:00.562Z,6.10
2018-11-07T21:22:30.545Z,8.40
2018-11-07T21:25:01.822Z,8.40
2018-11-07T21:27:45.693Z,6.40
2018-11-07T21:30:15.851Z,7.20
2018-11-07T21:32:46.723Z,8.70
2018-11-07T21:35:22.826Z,8.40
2018-11-07T21:37:51.376Z,8.30
2018-11-07T21:40:19.721Z,8.60
2018-11-07T21:42:48.343Z,8.40
2018-11-07T21:45:16.695Z,8.40
2018-11-07T21:47:45.008Z,8.40
2018-11-07T21:50:15.724Z,8.40
2018-11-07T21:52:44.215Z,8.40
2018-11-07T21:55:12.828Z,8.40
2018-11-07T21:57:41.183Z,8.40
2018-11-07T22:00:13.722Z,8.40
2018-11-07T22:02:42.850Z,8.40
2018-11-07T22:05:12.025Z,8.50
2018-11-07T22:07:40.494Z,8.50
2018-11-07T22:10:09.914Z,8.50
2018-11-07T22:12:38.443Z,8.50
2018-11-07T22:15:07.532Z,8.40
2018-11-07T22:17:35.950Z,8.30
2018-11-07T22:20:08.331Z,8.10
2018-11-07T22:22:41.961Z,8.10
2018-11-07T22:25:10.099Z,7.90
2018-11-07T22:27:39.681Z,7.90
2018-11-07T22:30:11.241Z,7.80
2018-11-07T22:32:39.532Z,7.70
2018-11-07T22:35:09.643Z,7.80
2018-11-07T22:37:38.319Z,7.90
2018-11-07T22:40:08.988Z,7.90
2018-11-07T22:42:37.179Z,7.90
2018-11-07T22:45:05.829Z,7.90
2018-11-07T22:47:34.092Z,7.80
2018-11-07T22:50:03.210Z,7.70
2018-11-07T22:52:31.440Z,7.70
2018-11-07T22:55:00.178Z,7.70
2018-11-07T22:57:28.324Z,7.60
2018-11-07T22:59:56.443Z,7.60
2018-11-07T23:02:24.573Z,7.70
2018-11-07T23:04:52.811Z,7.70
2018-11-07T23:07:20.969Z,7.80
2018-11-07T23:09:49.868Z,7.80
2018-11-07T23:12:18.023Z,7.90
2018-11-07T23:14:46.489Z,7.90
2018-11-07T23:17:14.768Z,7.80
2018-11-07T23:19:42.913Z,7.80
2018-11-07T23:22:11.096Z,7.90
2018-11-07T23:24:39.248Z,8.00
2018-11-07T23:27:08.158Z,7.90
2018-11-07T23:29:36.331Z,8.00
2018-11-07T23:32:04.564Z,7.90
2018-11-07T23:34:32.717Z,8.00
2018-11-07T23:37:00.888Z,7.90
2018-11-07T23:39:29.131Z,8.60
2018-11-07T23:42:06.858Z,8.10
2018-11-07T23:44:35.032Z,8.10
2018-11-07T23:47:03.210Z,8.10
2018-11-07T23:49:31.325Z,8.10
2018-11-07T23:51:59.522Z,8.10
2018-11-07T23:54:27.605Z,8.20
2018-11-07T23:56:55.836Z,8.20
2018-11-07T23:59:24.022Z,8.20
